Time;durP1;ratioP1;P1;durP2;ratioP2;P2;SDS_P1;SDS_P2;PMS_P1;PMS_P2;Temp;Humidity;BMP_temperature;BMP_pressure;BME280_temperature;BME280_humidity;BME280_pressure;Samples;Min_cycle;Max_cycle;Signal;HPM_P1;HPM_P2
2023/06/28 00:01:23;;;;;;;1.87;1.40;;;;;;;;;;5057706;28;20210;-64
2023/06/28 00:03:52;;;;;;;2.10;1.30;;;;;;;;;;5057106;28;20696;-64
2023/06/28 00:06:20;;;;;;;1.93;1.40;;;;;;;;;;5057182;28;20312;-64
2023/06/28 00:08:48;;;;;;;5.13;1.80;;;;;;;;;;5070757;28;20229;-63
2023/06/28 00:11:16;;;;;;;3.20;1.63;;;;;;;;;;5057370;28;20572;-63
2023/06/28 00:13:44;;;;;;;2.60;1.47;;;;;;;;;;5067128;28;20287;-64
2023/06/28 00:16:14;;;;;;;1.63;1.17;;;;;;;;;;5077272;28;20216;-64
2023/06/28 00:18:43;;;;;;;2.70;1.40;;;;;;;;;;5077623;28;20205;-65
2023/06/28 00:21:13;;;;;;;2.50;1.53;;;;;;;;;;5077371;28;20208;-63
2023/06/28 00:23:41;;;;;;;3.50;1.50;;;;;;;;;;5077227;28;20243;-65
2023/06/28 00:26:10;;;;;;;5.50;1.60;;;;;;;;;;5077489;28;20206;-65
2023/06/28 00:28:38;;;;;;;3.20;1.37;;;;;;;;;;5077192;28;20231;-65
2023/06/28 00:31:06;;;;;;;2.97;1.63;;;;;;;;;;5077206;28;20207;-65
2023/06/28 00:33:34;;;;;;;2.60;1.20;;;;;;;;;;5077125;28;20292;-65
2023/06/28 00:36:02;;;;;;;2.10;1.43;;;;;;;;;;5076851;28;20212;-65
2023/06/28 00:38:31;;;;;;;1.97;1.17;;;;;;;;;;5077079;28;20206;-65
2023/06/28 00:40:59;;;;;;;3.47;1.43;;;;;;;;;;5077074;28;20215;-65
2023/06/28 00:43:27;;;;;;;3.63;1.30;;;;;;;;;;5077055;28;20231;-65
2023/06/28 00:45:55;;;;;;;1.93;1.30;;;;;;;;;;5077023;28;20277;-65
2023/06/28 00:48:24;;;;;;;1.70;1.30;;;;;;;;;;5076993;28;20211;-65
2023/06/28 00:50:52;;;;;;;1.97;1.13;;;;;;;;;;5076674;28;20212;-65
2023/06/28 00:53:20;;;;;;;1.70;1.27;;;;;;;;;;5076983;28;20237;-63
2023/06/28 00:55:50;;;;;;;1.67;1.30;;;;;;;;;;5077265;28;20267;-63
2023/06/28 00:58:18;;;;;;;2.90;1.40;;;;;;;;;;5077249;28;20246;-63
2023/06/28 01:00:46;;;;;;;3.17;1.30;;;;;;;;;;5077017;28;20558;-63
2023/06/28 01:03:17;;;;;;;6.67;1.60;;;;;;;;;;5080667;28;20231;-64
2023/06/28 01:05:47;;;;;;;1.77;1.20;;;;;;;;;;5080192;28;20642;-63
2023/06/28 01:08:16;;;;;;;1.53;0.97;;;;;;;;;;5078325;28;20233;-64
2023/06/28 01:10:44;;;;;;;3.20;1.30;;;;;;;;;;5060374;28;20283;-64
2023/06/28 01:13:13;;;;;;;2.37;1.40;;;;;;;;;;5065836;28;20225;-64
2023/06/28 01:15:41;;;;;;;3.93;1.50;;;;;;;;;;5070752;28;20207;-64
2023/06/28 01:18:09;;;;;;;1.87;1.00;;;;;;;;;;5060328;28;20734;-64
2023/06/28 01:20:37;;;;;;;2.20;1.10;;;;;;;;;;5059860;28;20213;-64
2023/06/28 01:23:07;;;;;;;5.20;1.20;;;;;;;;;;5060293;28;20231;-64
2023/06/28 01:25:35;;;;;;;4.43;1.40;;;;;;;;;;5060075;28;20208;-64
2023/06/28 01:28:03;;;;;;;2.03;1.33;;;;;;;;;;5060198;28;20214;-64
2023/06/28 01:30:36;;;;;;;5.73;1.33;;;;;;;;;;5059992;28;20242;-64
2023/06/28 01:33:04;;;;;;;2.83;1.20;;;;;;;;;;5059829;28;20231;-64
2023/06/28 01:35:32;;;;;;;2.43;1.10;;;;;;;;;;5059589;28;20290;-64
2023/06/28 01:38:01;;;;;;;1.70;1.60;;;;;;;;;;5059740;28;20209;-64
2023/06/28 01:40:35;;;;;;;3.60;1.53;;;;;;;;;;5059954;28;20242;-64
2023/06/28 01:43:06;;;;;;;2.93;1.23;;;;;;;;;;5059679;28;20228;-64
2023/06/28 01:45:34;;;;;;;3.63;1.40;;;;;;;;;;5059938;28;20217;-64
2023/06/28 01:48:03;;;;;;;5.13;1.53;;;;;;;;;;5059678;28;20207;-64
2023/06/28 01:50:31;;;;;;;3.70;1.53;;;;;;;;;;5059191;28;20270;-64
2023/06/28 01:53:00;;;;;;;5.37;1.63;;;;;;;;;;5059534;28;20243;-65
2023/06/28 01:55:28;;;;;;;4.97;1.03;;;;;;;;;;5059459;28;20670;-65
2023/06/28 01:57:57;;;;;;;2.03;1.07;;;;;;;;;;5059765;28;20219;-65
2023/06/28 02:00:25;;;;;;;2.80;1.60;;;;;;;;;;5059481;28;20204;-64
2023/06/28 02:02:53;;;;;;;1.03;0.97;;;;;;;;;;5059486;28;20717;-62
2023/06/28 02:05:22;;;;;;;1.83;1.20;;;;;;;;;;5059047;28;20327;-65
2023/06/28 02:07:50;;;;;;;2.13;1.00;;;;;;;;;;5071033;28;20288;-64
2023/06/28 02:10:18;;;;;;;2.03;1.33;;;;;;;;;;5060437;28;20255;-64
2023/06/28 02:12:46;;;;;;;2.60;1.20;;;;;;;;;;5059821;28;20282;-64
2023/06/28 02:15:16;;;;;;;2.03;1.30;;;;;;;;;;5073547;28;20265;-65
2023/06/28 02:17:44;;;;;;;1.77;1.30;;;;;;;;;;5059042;28;20206;-64
2023/06/28 02:20:12;;;;;;;8.00;1.60;;;;;;;;;;5058755;28;20211;-65
2023/06/28 02:22:40;;;;;;;2.77;1.07;;;;;;;;;;5058878;28;20227;-65
2023/06/28 02:25:09;;;;;;;5.27;1.47;;;;;;;;;;5059205;28;20214;-64
2023/06/28 02:27:37;;;;;;;4.90;1.40;;;;;;;;;;5059008;28;20221;-64
2023/06/28 02:30:05;;;;;;;3.57;1.57;;;;;;;;;;5058989;28;20234;-65
2023/06/28 02:32:34;;;;;;;3.40;1.30;;;;;;;;;;5058978;28;20229;-64
2023/06/28 02:35:02;;;;;;;4.40;1.20;;;;;;;;;;5058710;28;20208;-65
2023/06/28 02:37:30;;;;;;;5.00;3.10;;;;;;;;;;5058661;28;20658;-65
2023/06/28 02:39:58;;;;;;;1.90;1.40;;;;;;;;;;5058634;28;20232;-65
2023/06/28 02:42:26;;;;;;;2.87;1.20;;;;;;;;;;5058538;28;20233;-65
2023/06/28 02:44:54;;;;;;;4.77;1.50;;;;;;;;;;5058833;28;20258;-64
2023/06/28 02:47:23;;;;;;;2.70;1.40;;;;;;;;;;5057964;28;20207;-64
2023/06/28 02:49:52;;;;;;;2.43;1.00;;;;;;;;;;5056687;28;20274;-65
2023/06/28 02:52:20;;;;;;;2.77;1.20;;;;;;;;;;5058124;28;20259;-65
2023/06/28 02:54:48;;;;;;;4.37;1.40;;;;;;;;;;5058125;28;20213;-65
2023/06/28 02:57:16;;;;;;;1.80;1.50;;;;;;;;;;5059231;28;20258;-72
2023/06/28 02:59:44;;;;;;;2.43;1.10;;;;;;;;;;5072091;28;20744;-72
2023/06/28 03:02:15;;;;;;;3.60;1.10;;;;;;;;;;5067329;28;20220;-72
2023/06/28 03:04:43;;;;;;;2.50;1.53;;;;;;;;;;5066645;28;20205;-72
2023/06/28 03:07:14;;;;;;;3.07;1.50;;;;;;;;;;5065696;28;20238;-72
2023/06/28 03:09:42;;;;;;;2.37;1.37;;;;;;;;;;5068193;28;20627;-72
2023/06/28 03:12:11;;;;;;;3.00;1.70;;;;;;;;;;5061430;28;20227;-73
2023/06/28 03:14:39;;;;;;;3.43;1.50;;;;;;;;;;5059839;28;20203;-72
2023/06/28 03:17:07;;;;;;;6.13;1.60;;;;;;;;;;5077971;28;20210;-73
2023/06/28 03:19:35;;;;;;;3.67;1.60;;;;;;;;;;5075548;28;20205;-72
2023/06/28 03:22:04;;;;;;;2.77;1.37;;;;;;;;;;5075396;28;20232;-72
2023/06/28 03:24:33;;;;;;;6.20;1.40;;;;;;;;;;5075343;28;20221;-72
2023/06/28 03:27:01;;;;;;;4.30;1.80;;;;;;;;;;5075777;28;20785;-73
2023/06/28 03:29:29;;;;;;;5.87;1.40;;;;;;;;;;5075782;28;20213;-72
2023/06/28 03:31:57;;;;;;;6.07;1.40;;;;;;;;;;5076053;28;20229;-73
2023/06/28 03:34:25;;;;;;;4.23;1.37;;;;;;;;;;5076812;28;20567;-72
2023/06/28 03:36:53;;;;;;;4.17;1.77;;;;;;;;;;5078272;28;20220;-72
2023/06/28 03:39:33;;;;;;;1.17;1.10;;;;;;;;;;5077663;28;20204;-72
2023/06/28 03:42:01;;;;;;;3.27;1.40;;;;;;;;;;5077949;28;20198;-73
2023/06/28 03:44:29;;;;;;;4.10;1.40;;;;;;;;;;5077743;28;20209;-72
2023/06/28 03:46:57;;;;;;;4.20;1.50;;;;;;;;;;5077621;28;20679;-73
2023/06/28 03:49:25;;;;;;;2.20;1.47;;;;;;;;;;5069275;28;20208;-72
2023/06/28 03:51:53;;;;;;;5.10;1.47;;;;;;;;;;5057380;28;20229;-72
2023/06/28 03:54:21;;;;;;;3.53;1.20;;;;;;;;;;5057878;28;20208;-73
2023/06/28 03:56:53;;;;;;;4.70;1.40;;;;;;;;;;5057385;28;20202;-72
2023/06/28 03:59:20;;;;;;;4.20;1.33;;;;;;;;;;5057415;28;20668;-72
2023/06/28 04:01:51;;;;;;;4.93;1.20;;;;;;;;;;5057539;28;20215;-73
2023/06/28 04:04:20;;;;;;;1.70;1.10;;;;;;;;;;5057163;28;20638;-72
2023/06/28 04:06:48;;;;;;;1.63;1.30;;;;;;;;;;5060636;28;20327;-72
2023/06/28 04:09:16;;;;;;;4.90;1.43;;;;;;;;;;5067292;28;20217;-72
2023/06/28 04:11:44;;;;;;;2.20;1.40;;;;;;;;;;5057196;28;20229;-73
2023/06/28 04:14:13;;;;;;;2.20;1.50;;;;;;;;;;5069546;28;20639;-73
2023/06/28 04:16:41;;;;;;;3.07;1.37;;;;;;;;;;5068027;28;20198;-72
2023/06/28 04:19:09;;;;;;;3.70;1.20;;;;;;;;;;5066719;28;20291;-73
2023/06/28 04:21:38;;;;;;;6.57;1.43;;;;;;;;;;5067819;28;20208;-72
2023/06/28 04:24:06;;;;;;;2.93;1.23;;;;;;;;;;5066483;28;20275;-73
2023/06/28 04:26:34;;;;;;;4.17;1.40;;;;;;;;;;5065843;28;20203;-72
2023/06/28 04:29:03;;;;;;;3.03;1.50;;;;;;;;;;5068432;28;20208;-73
2023/06/28 04:31:33;;;;;;;5.10;1.53;;;;;;;;;;5067097;28;20259;-72
2023/06/28 04:34:01;;;;;;;7.47;1.40;;;;;;;;;;5067893;28;20246;-73
2023/06/28 04:36:29;;;;;;;5.47;2.47;;;;;;;;;;5068182;28;20202;-72
2023/06/28 04:38:58;;;;;;;1.57;1.43;;;;;;;;;;5069974;28;20205;-73
2023/06/28 04:41:26;;;;;;;3.30;1.73;;;;;;;;;;5069542;28;20199;-72
2023/06/28 04:43:56;;;;;;;3.43;1.20;;;;;;;;;;5070515;28;20224;-72
2023/06/28 04:46:26;;;;;;;4.87;1.40;;;;;;;;;;5072132;28;20223;-73
2023/06/28 04:48:56;;;;;;;2.93;1.60;;;;;;;;;;5071583;28;20213;-72
2023/06/28 04:51:25;;;;;;;3.93;1.40;;;;;;;;;;5071576;28;20224;-73
2023/06/28 04:53:53;;;;;;;3.00;1.47;;;;;;;;;;5070563;28;20224;-73
2023/06/28 04:56:22;;;;;;;4.90;1.70;;;;;;;;;;5069424;28;20203;-73
2023/06/28 04:58:50;;;;;;;3.43;1.27;;;;;;;;;;5070640;28;20240;-73
2023/06/28 05:01:18;;;;;;;2.77;1.37;;;;;;;;;;5070935;28;20226;-73
2023/06/28 05:03:47;;;;;;;4.00;1.50;;;;;;;;;;5070365;28;20226;-71
2023/06/28 05:06:19;;;;;;;4.97;1.50;;;;;;;;;;5069022;28;20603;-72
2023/06/28 05:08:47;;;;;;;2.53;1.40;;;;;;;;;;5071827;28;20205;-71
2023/06/28 05:11:15;;;;;;;2.17;1.20;;;;;;;;;;5068323;28;20226;-72
2023/06/28 05:13:43;;;;;;;10.27;1.70;;;;;;;;;;5071287;28;20624;-72
2023/06/28 05:16:11;;;;;;;3.43;1.57;;;;;;;;;;5067977;28;20214;-72
2023/06/28 05:18:39;;;;;;;2.30;1.20;;;;;;;;;;5070674;28;20228;-72
2023/06/28 05:21:07;;;;;;;5.67;1.57;;;;;;;;;;5070528;28;20212;-71
2023/06/28 05:23:37;;;;;;;2.43;1.30;;;;;;;;;;5071424;28;20233;-72
2023/06/28 05:26:05;;;;;;;3.97;1.60;;;;;;;;;;5069643;28;20689;-72
2023/06/28 05:28:34;;;;;;;6.17;1.47;;;;;;;;;;5071677;28;20195;-72
2023/06/28 05:31:02;;;;;;;4.93;1.73;;;;;;;;;;5068995;28;20206;-72
2023/06/28 05:33:30;;;;;;;2.80;1.10;;;;;;;;;;5069028;28;20313;-73
2023/06/28 05:35:58;;;;;;;4.53;1.73;;;;;;;;;;5070322;28;20218;-72
2023/06/28 05:38:26;;;;;;;2.17;1.27;;;;;;;;;;5069496;28;20656;-73
2023/06/28 05:40:56;;;;;;;3.97;1.60;;;;;;;;;;5067959;28;20198;-72
2023/06/28 05:43:25;;;;;;;2.43;1.50;;;;;;;;;;5067620;28;20259;-73
2023/06/28 05:45:54;;;;;;;3.17;1.30;;;;;;;;;;5070084;28;20202;-72
2023/06/28 05:51:45;;;;;;;3.03;1.20;;;;;;;;;;5066817;28;20225;-72
2023/06/28 05:54:13;;;;;;;2.43;1.37;;;;;;;;;;5069880;28;20204;-72
2023/06/28 05:56:44;;;;;;;2.47;1.80;;;;;;;;;;5066240;28;20199;-71
2023/06/28 05:59:12;;;;;;;3.40;1.40;;;;;;;;;;5059442;28;20605;-70
2023/06/28 06:01:40;;;;;;;4.83;1.60;;;;;;;;;;5059665;28;20222;-70
2023/06/28 06:04:08;;;;;;;4.77;1.33;;;;;;;;;;5061419;28;20316;-69
2023/06/28 06:06:36;;;;;;;4.93;1.70;;;;;;;;;;5076016;28;20199;-68
2023/06/28 06:09:04;;;;;;;5.43;1.37;;;;;;;;;;5078855;28;20201;-68
2023/06/28 06:11:32;;;;;;;11.23;2.47;;;;;;;;;;5078710;28;20229;-68
2023/06/28 06:14:01;;;;;;;7.23;2.07;;;;;;;;;;5075997;28;20267;-69
2023/06/28 06:16:29;;;;;;;6.30;1.53;;;;;;;;;;5073007;28;20206;-68
2023/06/28 06:18:57;;;;;;;3.83;1.40;;;;;;;;;;5077696;28;20222;-68
2023/06/28 06:21:25;;;;;;;5.97;1.77;;;;;;;;;;5078412;28;20575;-73
2023/06/28 06:23:53;;;;;;;5.47;1.90;;;;;;;;;;5076385;28;20228;-73
2023/06/28 06:26:23;;;;;;;2.77;1.50;;;;;;;;;;5078788;28;20212;-74
2023/06/28 06:28:51;;;;;;;8.60;1.77;;;;;;;;;;5078947;28;20753;-73
2023/06/28 06:31:20;;;;;;;6.57;1.70;;;;;;;;;;5078916;28;20209;-71
2023/06/28 06:33:48;;;;;;;7.53;2.10;;;;;;;;;;5078453;28;20293;-73
2023/06/28 06:36:16;;;;;;;7.10;1.70;;;;;;;;;;5078253;28;20222;-72
2023/06/28 06:38:44;;;;;;;3.27;1.53;;;;;;;;;;5078169;28;20212;-72
2023/06/28 06:41:12;;;;;;;3.17;1.40;;;;;;;;;;5078389;28;20234;-70
2023/06/28 06:43:40;;;;;;;5.67;1.83;;;;;;;;;;5075834;28;20244;-58
2023/06/28 06:46:08;;;;;;;4.70;1.90;;;;;;;;;;5068557;28;20228;-59
2023/06/28 06:48:38;;;;;;;4.10;2.33;;;;;;;;;;5067898;28;20690;-59
2023/06/28 06:51:07;;;;;;;2.87;1.57;;;;;;;;;;5076945;28;20196;-60
2023/06/28 06:53:35;;;;;;;8.67;2.00;;;;;;;;;;5074816;28;20584;-61
2023/06/28 06:56:02;;;;;;;5.93;1.60;;;;;;;;;;5077501;28;20674;-61
2023/06/28 06:58:30;;;;;;;3.93;1.47;;;;;;;;;;5077382;28;20263;-61
2023/06/28 07:00:58;;;;;;;3.40;1.90;;;;;;;;;;5077094;28;20721;-61
2023/06/28 07:03:26;;;;;;;4.30;1.50;;;;;;;;;;5077444;28;20251;-59
2023/06/28 07:05:56;;;;;;;7.83;1.70;;;;;;;;;;5063119;28;20669;-62
2023/06/28 07:08:24;;;;;;;9.50;2.00;;;;;;;;;;5074115;28;20234;-61
2023/06/28 07:10:52;;;;;;;5.10;1.60;;;;;;;;;;5077884;28;20213;-61
2023/06/28 07:13:20;;;;;;;3.47;1.80;;;;;;;;;;5071177;28;20280;-61
2023/06/28 07:15:48;;;;;;;2.80;1.53;;;;;;;;;;5068028;28;20209;-61
2023/06/28 07:18:16;;;;;;;4.37;1.90;;;;;;;;;;5068209;28;20215;-61
2023/06/28 07:20:44;;;;;;;3.07;1.50;;;;;;;;;;5057185;28;20205;-63
2023/06/28 07:23:14;;;;;;;6.17;1.60;;;;;;;;;;5057529;28;20625;-62
2023/06/28 07:25:42;;;;;;;6.00;1.57;;;;;;;;;;5057460;28;20219;-61
2023/06/28 07:28:10;;;;;;;4.17;1.73;;;;;;;;;;5057671;28;20551;-60
2023/06/28 07:30:53;;;;;;;4.27;1.77;;;;;;;;;;5057811;28;20209;-61
2023/06/28 07:33:22;;;;;;;3.53;1.47;;;;;;;;;;5057286;28;20231;-61
2023/06/28 07:35:50;;;;;;;2.63;1.63;;;;;;;;;;5065205;28;20213;-60
2023/06/28 07:38:20;;;;;;;4.37;1.80;;;;;;;;;;5057623;28;20208;-60
2023/06/28 07:40:48;;;;;;;4.00;1.30;;;;;;;;;;5057201;28;20630;-61
2023/06/28 07:43:17;;;;;;;4.63;1.50;;;;;;;;;;5057119;28;20228;-61
2023/06/28 07:45:46;;;;;;;5.20;1.80;;;;;;;;;;5066679;28;20567;-60
2023/06/28 07:48:14;;;;;;;2.47;1.27;;;;;;;;;;5062641;28;20281;-61
2023/06/28 07:50:42;;;;;;;2.80;1.27;;;;;;;;;;5057397;28;20295;-61
2023/06/28 07:53:10;;;;;;;3.80;1.70;;;;;;;;;;5070398;28;20596;-59
2023/06/28 07:55:40;;;;;;;2.87;1.83;;;;;;;;;;5057176;28;20217;-60
2023/06/28 07:58:08;;;;;;;2.50;1.17;;;;;;;;;;5057071;28;20228;-60
2023/06/28 08:00:36;;;;;;;5.37;1.97;;;;;;;;;;5057470;28;20211;-61
2023/06/28 08:03:04;;;;;;;3.33;1.50;;;;;;;;;;5057134;28;20675;-62
2023/06/28 08:05:32;;;;;;;2.87;1.50;;;;;;;;;;5056879;28;20300;-62
2023/06/28 08:08:00;;;;;;;4.83;2.00;;;;;;;;;;5070190;28;20229;-62
2023/06/28 08:10:28;;;;;;;5.53;1.70;;;;;;;;;;5066165;28;20202;-63
2023/06/28 08:12:58;;;;;;;4.83;1.33;;;;;;;;;;5064476;28;20248;-63
2023/06/28 08:15:26;;;;;;;4.73;1.37;;;;;;;;;;5073827;28;20675;-63
2023/06/28 08:17:54;;;;;;;3.07;1.40;;;;;;;;;;5061024;28;20610;-63
2023/06/28 08:20:22;;;;;;;3.10;1.40;;;;;;;;;;5060712;28;20609;-63
2023/06/28 08:22:50;;;;;;;1.97;1.33;;;;;;;;;;5061055;28;20221;-63
2023/06/28 08:25:18;;;;;;;5.73;1.63;;;;;;;;;;5062575;28;20213;-63
2023/06/28 08:27:46;;;;;;;7.90;2.27;;;;;;;;;;5061017;28;20254;-63
2023/06/28 08:30:16;;;;;;;4.53;1.50;;;;;;;;;;5061142;28;20208;-63
2023/06/28 08:32:44;;;;;;;6.00;1.77;;;;;;;;;;5060669;28;20681;-62
2023/06/28 08:35:12;;;;;;;4.23;1.30;;;;;;;;;;5060442;28;20291;-62
2023/06/28 08:37:40;;;;;;;2.10;1.37;;;;;;;;;;5060789;28;20576;-62
2023/06/28 08:40:08;;;;;;;14.00;3.07;;;;;;;;;;5063790;28;20235;-62
2023/06/28 08:42:39;;;;;;;3.13;1.20;;;;;;;;;;5065839;28;20234;-62
2023/06/28 08:45:07;;;;;;;6.50;1.73;;;;;;;;;;5063378;28;20258;-63
2023/06/28 08:47:38;;;;;;;3.73;1.60;;;;;;;;;;5060599;28;20227;-62
2023/06/28 08:50:07;;;;;;;3.53;1.50;;;;;;;;;;5060219;28;20241;-62
2023/06/28 08:52:36;;;;;;;2.73;1.53;;;;;;;;;;5060620;28;20229;-62
2023/06/28 08:55:04;;;;;;;6.97;1.57;;;;;;;;;;5060544;28;20224;-62
2023/06/28 08:57:39;;;;;;;5.43;1.70;;;;;;;;;;5060670;28;20207;-62
2023/06/28 09:00:10;;;;;;;4.00;1.60;;;;;;;;;;5067108;28;20207;-62
2023/06/28 09:02:41;;;;;;;3.63;1.83;;;;;;;;;;5060576;28;20228;-62
2023/06/28 09:05:10;;;;;;;3.77;1.43;;;;;;;;;;5059915;28;20208;-62
2023/06/28 09:07:39;;;;;;;5.63;1.40;;;;;;;;;;5060189;28;20252;-62
2023/06/28 09:10:08;;;;;;;2.30;1.20;;;;;;;;;;5060386;28;20291;-62
2023/06/28 09:12:36;;;;;;;6.40;1.73;;;;;;;;;;5060946;28;20243;-62
2023/06/28 09:15:05;;;;;;;4.30;1.37;;;;;;;;;;5075438;28;20914;-62
2023/06/28 09:17:33;;;;;;;6.40;1.67;;;;;;;;;;5072727;28;20215;-62
2023/06/28 09:20:15;;;;;;;2.10;1.23;;;;;;;;;;5060193;28;20671;-62
2023/06/28 09:22:43;;;;;;;3.03;1.33;;;;;;;;;;5059135;28;20574;-62
2023/06/28 09:25:11;;;;;;;2.47;1.53;;;;;;;;;;5060163;28;20254;-62
2023/06/28 09:27:42;;;;;;;5.70;2.03;;;;;;;;;;5059974;28;20257;-62
2023/06/28 09:30:17;;;;;;;2.53;1.40;;;;;;;;;;5059983;28;20213;-62
2023/06/28 09:32:50;;;;;;;3.07;1.47;;;;;;;;;;5059629;28;20585;-62
2023/06/28 09:35:20;;;;;;;3.53;1.30;;;;;;;;;;5067020;28;20229;-62
2023/06/28 09:37:50;;;;;;;4.27;1.50;;;;;;;;;;5059734;28;20294;-62
2023/06/28 09:40:19;;;;;;;3.00;1.37;;;;;;;;;;5067369;28;20209;-62
2023/06/28 09:42:47;;;;;;;2.07;1.50;;;;;;;;;;5060023;28;20262;-62
2023/06/28 09:45:24;;;;;;;2.50;1.50;;;;;;;;;;5060406;28;20220;-62
2023/06/28 09:47:56;;;;;;;5.83;1.23;;;;;;;;;;5072446;28;20263;-62
2023/06/28 09:50:34;;;;;;;5.20;2.30;;;;;;;;;;5065811;28;20209;-62
2023/06/28 09:53:02;;;;;;;3.10;1.70;;;;;;;;;;5068041;28;20233;-62
2023/06/28 09:55:31;;;;;;;6.23;1.50;;;;;;;;;;5059091;28;20229;-62
2023/06/28 09:57:59;;;;;;;3.63;1.37;;;;;;;;;;5059170;28;20227;-62
2023/06/28 10:00:28;;;;;;;5.60;1.40;;;;;;;;;;5059438;28;20213;-62
2023/06/28 10:02:58;;;;;;;2.60;1.27;;;;;;;;;;5059154;28;20270;-62
2023/06/28 10:05:28;;;;;;;3.20;1.50;;;;;;;;;;5058841;28;20206;-61
2023/06/28 10:07:56;;;;;;;2.93;1.40;;;;;;;;;;5066037;28;20305;-62
2023/06/28 10:10:24;;;;;;;3.43;1.67;;;;;;;;;;5059098;28;20211;-62
2023/06/28 10:12:53;;;;;;;4.57;1.93;;;;;;;;;;5061145;28;20255;-60
2023/06/28 10:15:22;;;;;;;3.07;1.33;;;;;;;;;;5076298;28;20638;-60
2023/06/28 10:17:51;;;;;;;2.77;1.30;;;;;;;;;;5078434;28;20225;-59
2023/06/28 10:20:21;;;;;;;4.97;1.40;;;;;;;;;;5078131;28;20197;-59
2023/06/28 10:22:51;;;;;;;2.83;1.50;;;;;;;;;;5078328;28;20809;-59
2023/06/28 10:25:19;;;;;;;3.87;1.53;;;;;;;;;;5068619;28;20235;-59
2023/06/28 10:27:48;;;;;;;1.47;1.33;;;;;;;;;;5058544;28;20275;-59
2023/06/28 10:30:16;;;;;;;6.17;1.63;;;;;;;;;;5058612;28;20207;-57
2023/06/28 10:32:44;;;;;;;1.80;1.43;;;;;;;;;;5058506;28;20229;-59
2023/06/28 10:35:12;;;;;;;4.07;1.77;;;;;;;;;;5057639;28;20260;-58
2023/06/28 10:37:40;;;;;;;4.90;1.97;;;;;;;;;;5068065;28;20227;-59
2023/06/28 10:40:11;;;;;;;3.07;1.43;;;;;;;;;;5078125;28;20205;-59
2023/06/28 10:42:40;;;;;;;5.07;1.80;;;;;;;;;;5075784;28;20221;-59
2023/06/28 10:45:09;;;;;;;4.00;1.73;;;;;;;;;;5077862;28;20254;-59
2023/06/28 10:47:51;;;;;;;2.13;1.50;;;;;;;;;;5075627;28;20197;-59
2023/06/28 10:50:21;;;;;;;3.93;1.40;;;;;;;;;;5077706;28;20222;-60
2023/06/28 10:52:49;;;;;;;4.63;1.73;;;;;;;;;;5077963;28;20231;-59
2023/06/28 10:55:31;;;;;;;1.77;1.57;;;;;;;;;;5135956;27;20543;-60
2023/06/28 10:58:06;;;;;;;3.70;1.60;;;;;;;;;;5135884;27;20291;-63
2023/06/28 11:00:44;;;;;;;3.20;2.10;;;;;;;;;;5122869;28;20233;-62
2023/06/28 11:03:13;;;;;;;3.27;1.70;;;;;;;;;;5122729;27;20296;-62
2023/06/28 11:05:54;;;;;;;4.27;2.40;;;;;;;;;;5112262;28;20230;-64
2023/06/28 11:08:23;;;;;;;4.73;1.50;;;;;;;;;;5113020;28;20212;-62
2023/06/28 11:10:58;;;;;;;4.73;1.63;;;;;;;;;;5114124;28;20205;-64
2023/06/28 11:13:33;;;;;;;6.83;1.90;;;;;;;;;;5113567;28;20225;-64
2023/06/28 11:16:08;;;;;;;2.80;1.40;;;;;;;;;;5110719;28;20200;-63
2023/06/28 11:18:36;;;;;;;6.17;1.80;;;;;;;;;;5112135;28;20200;-62
2023/06/28 11:21:05;;;;;;;4.50;2.07;;;;;;;;;;5114351;28;20622;-62
2023/06/28 11:23:36;;;;;;;3.40;2.63;;;;;;;;;;5114476;28;20271;-61
2023/06/28 11:26:07;;;;;;;5.83;1.80;;;;;;;;;;5114422;28;20203;-62
2023/06/28 11:28:35;;;;;;;3.77;2.00;;;;;;;;;;5114563;28;20546;-63
2023/06/28 11:31:13;;;;;;;4.53;1.80;;;;;;;;;;5111468;28;20196;-63
2023/06/28 11:33:42;;;;;;;4.30;1.47;;;;;;;;;;5112966;28;20251;-62
2023/06/28 11:36:10;;;;;;;2.40;1.60;;;;;;;;;;5113960;28;20198;-62
2023/06/28 11:38:38;;;;;;;3.20;1.97;;;;;;;;;;5114608;28;20568;-62
2023/06/28 11:41:08;;;;;;;4.63;1.73;;;;;;;;;;5114343;28;20210;-62
2023/06/28 11:43:36;;;;;;;3.87;2.00;;;;;;;;;;5114566;28;20230;-62
2023/06/28 11:46:04;;;;;;;6.70;1.90;;;;;;;;;;5114396;28;20210;-62
2023/06/28 11:48:32;;;;;;;4.97;1.83;;;;;;;;;;5114294;28;20260;-62
2023/06/28 11:51:01;;;;;;;4.20;2.20;;;;;;;;;;5114234;28;20211;-62
2023/06/28 11:53:30;;;;;;;2.70;1.90;;;;;;;;;;5113938;28;20246;-62
2023/06/28 11:55:58;;;;;;;5.10;2.00;;;;;;;;;;5114336;28;20211;-63
2023/06/28 11:58:28;;;;;;;3.00;1.70;;;;;;;;;;5114081;28;20212;-61
2023/06/28 12:00:56;;;;;;;2.53;1.80;;;;;;;;;;5114374;28;20206;-62
2023/06/28 12:03:31;;;;;;;3.07;1.47;;;;;;;;;;5114087;28;20289;-62
2023/06/28 12:06:00;;;;;;;4.80;1.90;;;;;;;;;;5104722;28;20212;-62
2023/06/28 12:08:32;;;;;;;3.27;1.80;;;;;;;;;;5099840;28;20208;-62
2023/06/28 12:11:00;;;;;;;3.30;2.60;;;;;;;;;;5100363;28;20213;-62
2023/06/28 12:13:30;;;;;;;3.83;1.70;;;;;;;;;;5100441;28;20221;-62
2023/06/28 12:15:59;;;;;;;4.17;1.40;;;;;;;;;;5100470;28;20263;-62
2023/06/28 12:18:50;;;;;;;4.90;1.63;;;;;;;;;;5087102;28;20214;-61
2023/06/28 12:21:19;;;;;;;2.93;1.70;;;;;;;;;;5100082;28;20216;-61
2023/06/28 12:23:47;;;;;;;1.83;1.60;;;;;;;;;;5099849;28;20721;-62
2023/06/28 12:26:15;;;;;;;3.97;1.83;;;;;;;;;;5100392;28;20312;-61
2023/06/28 12:28:49;;;;;;;3.10;2.23;;;;;;;;;;5100108;28;20682;-62
2023/06/28 12:31:17;;;;;;;3.10;1.70;;;;;;;;;;5100007;28;20569;-62
2023/06/28 12:33:53;;;;;;;3.77;2.23;;;;;;;;;;5099711;28;20651;-63
2023/06/28 12:36:21;;;;;;;3.67;1.90;;;;;;;;;;5100009;28;20203;-61
2023/06/28 12:38:50;;;;;;;2.90;1.93;;;;;;;;;;5099085;28;20203;-61
2023/06/28 12:41:18;;;;;;;4.00;1.83;;;;;;;;;;5099151;28;20197;-61
2023/06/28 12:43:57;;;;;;;6.37;1.43;;;;;;;;;;5099129;28;20213;-61
2023/06/28 12:46:26;;;;;;;5.13;2.07;;;;;;;;;;5099109;28;20204;-60
2023/06/28 12:48:55;;;;;;;3.03;1.87;;;;;;;;;;5099079;28;20229;-61
2023/06/28 12:51:23;;;;;;;4.57;2.17;;;;;;;;;;5099085;28;20215;-61
2023/06/28 12:53:55;;;;;;;6.50;2.27;;;;;;;;;;5098757;28;20712;-61
2023/06/28 12:56:24;;;;;;;2.33;1.97;;;;;;;;;;5099269;28;20233;-61
2023/06/28 12:58:52;;;;;;;3.57;1.83;;;;;;;;;;5098491;28;20193;-59
2023/06/28 13:01:21;;;;;;;2.17;1.40;;;;;;;;;;5099244;28;20231;-60
2023/06/28 13:03:55;;;;;;;2.00;1.80;;;;;;;;;;5096321;28;20213;-59
2023/06/28 13:06:24;;;;;;;1.83;1.70;;;;;;;;;;5098795;28;20202;-60
2023/06/28 13:08:52;;;;;;;5.23;2.10;;;;;;;;;;5096406;28;20207;-60
2023/06/28 13:11:20;;;;;;;3.07;1.83;;;;;;;;;;5097920;28;20199;-59
2023/06/28 13:13:48;;;;;;;4.33;1.87;;;;;;;;;;5098474;28;20234;-60
2023/06/28 13:16:16;;;;;;;3.90;1.93;;;;;;;;;;5087394;28;20624;-61
2023/06/28 13:18:45;;;;;;;3.13;1.80;;;;;;;;;;5098491;28;20214;-61
2023/06/28 13:21:13;;;;;;;2.30;1.50;;;;;;;;;;5098613;28;20207;-61
2023/06/28 13:23:41;;;;;;;4.93;1.90;;;;;;;;;;5096121;28;20303;-61
2023/06/28 13:26:10;;;;;;;3.93;2.13;;;;;;;;;;5098934;28;20211;-61
2023/06/28 13:28:38;;;;;;;3.77;1.80;;;;;;;;;;5099048;28;20254;-62
2023/06/28 13:31:06;;;;;;;590.20;404.38;;;;;;;;;;5099056;28;20261;-62
2023/06/28 13:33:34;;;;;;;140.77;105.28;;;;;;;;;;5099047;28;20316;-61
2023/06/28 13:36:03;;;;;;;10.20;7.55;;;;;;;;;;5097477;28;20228;-60
2023/06/28 13:38:31;;;;;;;6.13;2.60;;;;;;;;;;5096925;28;20201;-60
2023/06/28 13:40:59;;;;;;;2.40;2.03;;;;;;;;;;5096905;28;20238;-61
2023/06/28 13:43:27;;;;;;;4.50;1.65;;;;;;;;;;5096502;28;20772;-61
2023/06/28 13:45:55;;;;;;;3.22;1.77;;;;;;;;;;5096847;28;20602;-61
2023/06/28 13:48:23;;;;;;;3.85;2.00;;;;;;;;;;5096186;28;20211;-61
2023/06/28 13:50:52;;;;;;;4.80;2.20;;;;;;;;;;5097631;28;20619;-61
2023/06/28 13:53:21;;;;;;;5.03;1.65;;;;;;;;;;5098432;28;20756;-61
2023/06/28 13:55:49;;;;;;;2.28;1.60;;;;;;;;;;5098864;28;20232;-61
2023/06/28 13:58:17;;;;;;;7.30;2.10;;;;;;;;;;5098791;28;20210;-61
2023/06/28 14:00:45;;;;;;;6.10;2.33;;;;;;;;;;5098936;28;20215;-61
2023/06/28 14:03:13;;;;;;;2.03;1.75;;;;;;;;;;5098080;28;20230;-60
2023/06/28 14:05:41;;;;;;;4.95;1.60;;;;;;;;;;5098458;28;20646;-61
2023/06/28 14:08:09;;;;;;;2.72;2.20;;;;;;;;;;5098734;28;20217;-60
2023/06/28 14:10:39;;;;;;;2.60;2.17;;;;;;;;;;5098511;28;20684;-61
2023/06/28 14:13:07;;;;;;;2.65;2.05;;;;;;;;;;5098195;28;20729;-61
2023/06/28 14:15:35;;;;;;;5.80;2.30;;;;;;;;;;5098227;28;20622;-61
2023/06/28 14:18:03;;;;;;;4.50;1.75;;;;;;;;;;5098037;28;20689;-61
2023/06/28 14:20:31;;;;;;;4.13;2.13;;;;;;;;;;5098392;28;20207;-61
2023/06/28 14:22:59;;;;;;;5.63;2.08;;;;;;;;;;5098105;28;20227;-61
2023/06/28 14:25:27;;;;;;;2.35;2.15;;;;;;;;;;5098508;28;20209;-61
2023/06/28 14:27:57;;;;;;;4.13;1.88;;;;;;;;;;5098092;28;20214;-61
2023/06/28 14:30:26;;;;;;;3.70;1.98;;;;;;;;;;5098343;28;20213;-61
2023/06/28 14:32:55;;;;;;;3.63;1.75;;;;;;;;;;5097952;28;20631;-61
2023/06/28 14:35:24;;;;;;;3.00;2.30;;;;;;;;;;5097816;28;20762;-61
2023/06/28 14:37:52;;;;;;;3.03;1.92;;;;;;;;;;5098127;28;20210;-61
2023/06/28 14:40:20;;;;;;;3.95;1.70;;;;;;;;;;5098233;28;20209;-61
2023/06/28 14:42:48;;;;;;;2.50;1.77;;;;;;;;;;5097938;28;20229;-61
2023/06/28 14:45:18;;;;;;;4.05;1.80;;;;;;;;;;5098193;28;20213;-61
2023/06/28 14:47:46;;;;;;;2.40;1.58;;;;;;;;;;5097804;28;20206;-61
2023/06/28 14:50:14;;;;;;;4.10;2.20;;;;;;;;;;5097493;28;20592;-61
2023/06/28 14:52:42;;;;;;;2.30;1.80;;;;;;;;;;5097704;28;20237;-62
2023/06/28 14:55:10;;;;;;;1.95;1.65;;;;;;;;;;5097525;28;20239;-61
2023/06/28 14:57:38;;;;;;;5.25;1.67;;;;;;;;;;5097788;28;20676;-61